Terminal Aerodrome Forecast
Issued by NWS

Home | Current Version | Previous Version | Text Only | Print | Product List | Glossary On
Versions: 1 2 3 4 5 6 7 8 9 10 11 12 13 14 15 16 17 18 19 20 21 22 23 24 25 26 27 28 29 30 31 32 33
000
FTUS45 KGJT 201412 AAA
TAFEGE
TAF AMD
KEGE 201412Z 2014/2112 16004KT P6SM VCFG SCT008
      TEMPO 2014/2016 3SM BR OVC003
     FM201800 23009KT P6SM SCT150
     FM210200 17005KT P6SM SCT250
     FM210500 11005KT P6SM BKN070
     FM210900 18009KT P6SM SCT070=

USA.gov is the U.S. government's official web portal to all federal, state and local government web resources and services.